createdAt,value
2022-12-08T00:00:51.793Z,-4.1
2022-12-08T00:03:32.818Z,-4.1
2022-12-08T00:06:03.736Z,-4.1
2022-12-08T00:08:34.348Z,-4.2
2022-12-08T00:11:04.966Z,-4.2
2022-12-08T00:13:35.566Z,-4.3
2022-12-08T00:16:06.240Z,-4.3
2022-12-08T00:18:47.032Z,-4.4
2022-12-08T00:21:17.655Z,-4.5
2022-12-08T00:26:18.426Z,-4.3
2022-12-08T00:28:49.041Z,-4.4
2022-12-08T00:31:16.209Z,-4.4
2022-12-08T00:33:57.017Z,-4.5
2022-12-08T00:36:27.576Z,-4.5
2022-12-08T00:38:58.160Z,-4.5
2022-12-08T00:41:28.814Z,-4.5
2022-12-08T00:43:59.438Z,-4.5
2022-12-08T00:46:40.091Z,-4.5
2022-12-08T00:49:10.656Z,-4.5
2022-12-08T00:51:41.295Z,-4.4
2022-12-08T00:54:11.965Z,-4.4
2022-12-08T00:56:42.607Z,-4.5
2022-12-08T00:59:13.238Z,-4.5
2022-12-08T01:02:03.861Z,-4.5
2022-12-08T01:07:04.568Z,-4.7
2022-12-08T01:09:35.193Z,-4.6
2022-12-08T01:12:05.853Z,-4.7
2022-12-08T01:14:36.474Z,-4.8
2022-12-08T01:17:12.426Z,-4.8
2022-12-08T01:19:43.070Z,-4.8
2022-12-08T01:22:14.106Z,-4.9
2022-12-08T01:24:44.685Z,-4.9
2022-12-08T01:27:15.298Z,-4.9
2022-12-08T01:29:55.930Z,-5.0
2022-12-08T01:32:27.031Z,-5.2
2022-12-08T01:34:57.638Z,-5.2
2022-12-08T01:37:28.250Z,-5.2
2022-12-08T01:39:58.846Z,-5.3
2022-12-08T01:42:29.446Z,-5.4
2022-12-08T01:47:40.268Z,-5.4
2022-12-08T01:50:11.111Z,-5.4
2022-12-08T01:52:41.708Z,-5.3
2022-12-08T01:55:12.319Z,-5.2
2022-12-08T01:57:42.923Z,-5.0
2022-12-08T02:00:23.513Z,-4.9
2022-12-08T02:02:54.210Z,-4.8
2022-12-08T02:05:25.127Z,-4.7
2022-12-08T02:07:55.810Z,-4.5
2022-12-08T02:10:26.807Z,-4.5
2022-12-08T02:13:07.415Z,-4.5
2022-12-08T02:15:38.107Z,-4.3
2022-12-08T02:18:08.969Z,-4.2
2022-12-08T02:20:39.618Z,-3.9
2022-12-08T02:23:10.231Z,-3.9
2022-12-08T02:28:21.011Z,-3.9
2022-12-08T02:30:51.699Z,-4.0
2022-12-08T02:33:22.713Z,-4.1
2022-12-08T02:35:53.300Z,-4.0
2022-12-08T02:38:23.887Z,-4.1
2022-12-08T02:40:54.501Z,-4.2
2022-12-08T02:43:35.111Z,-4.3
2022-12-08T02:46:05.769Z,-4.4
2022-12-08T02:48:36.457Z,-4.5
2022-12-08T02:51:07.355Z,-4.5
2022-12-08T02:53:37.998Z,-4.5
2022-12-08T02:56:18.633Z,-4.4
2022-12-08T02:58:49.236Z,-4.4
2022-12-08T03:01:19.884Z,-4.5
2022-12-08T03:03:50.724Z,-4.5
2022-12-08T03:08:51.506Z,-4.6
2022-12-08T03:11:32.165Z,-4.8
2022-12-08T03:14:02.742Z,-4.8
2022-12-08T03:16:33.372Z,-4.9
2022-12-08T03:19:03.979Z,-4.9
2022-12-08T03:21:34.639Z,-5.0
2022-12-08T03:24:05.244Z,-5.0
2022-12-08T03:26:45.849Z,-5.2
2022-12-08T03:29:26.433Z,-5.3
2022-12-08T03:31:57.063Z,-5.4
2022-12-08T03:34:27.679Z,-5.4
2022-12-08T03:36:58.279Z,-5.4
2022-12-08T03:39:38.881Z,-5.4
2022-12-08T03:42:09.487Z,-5.5
2022-12-08T03:44:40.098Z,-5.5
2022-12-08T03:49:41.034Z,-5.6
2022-12-08T03:52:12.030Z,-5.6
2022-12-08T03:54:52.628Z,-5.7
2022-12-08T03:57:23.229Z,-5.8
2022-12-08T03:59:53.851Z,-5.9
2022-12-08T04:02:25.139Z,-5.9
2022-12-08T04:04:55.987Z,-5.9
2022-12-08T04:07:26.638Z,-5.8
2022-12-08T04:10:07.653Z,-5.8
2022-12-08T04:12:38.391Z,-5.8
2022-12-08T04:15:08.987Z,-5.8
2022-12-08T04:17:39.568Z,-5.8
2022-12-08T04:20:10.225Z,-5.8
2022-12-08T04:22:50.863Z,-5.8
2022-12-08T04:25:22.849Z,-5.8
2022-12-08T04:30:23.579Z,-5.8
2022-12-08T04:32:54.199Z,-5.8
2022-12-08T04:35:24.831Z,-5.9
2022-12-08T04:38:05.453Z,-5.8
2022-12-08T04:40:36.057Z,-5.8
2022-12-08T04:43:06.648Z,-5.8
2022-12-08T04:45:37.278Z,-5.9
2022-12-08T04:48:07.869Z,-6.0
2022-12-08T04:50:38.480Z,-6.0
2022-12-08T04:53:19.094Z,-6.1
2022-12-08T04:55:46.415Z,-6.1
2022-12-08T04:58:17.018Z,-6.1
2022-12-08T05:00:47.670Z,-6.1
2022-12-08T05:03:20.477Z,-6.1
2022-12-08T05:05:55.735Z,-6.0
2022-12-08T05:10:56.491Z,-6.2
2022-12-08T05:13:27.109Z,-6.2
2022-12-08T05:15:57.785Z,-6.2
2022-12-08T05:18:28.588Z,-6.2
2022-12-08T05:21:09.218Z,-6.2
2022-12-08T05:23:49.850Z,-6.3
2022-12-08T05:26:20.438Z,-6.3
2022-12-08T05:28:50.990Z,-6.4
2022-12-08T05:31:21.632Z,-6.4
2022-12-08T05:33:52.422Z,-6.5
2022-12-08T05:36:24.059Z,-6.5
2022-12-08T05:38:54.637Z,-6.6
2022-12-08T05:41:25.244Z,-6.6
2022-12-08T05:43:55.848Z,-6.6
2022-12-08T05:46:36.504Z,-6.5
2022-12-08T05:51:47.264Z,-6.2
2022-12-08T05:54:18.051Z,-6.2
2022-12-08T05:56:48.671Z,-6.2
2022-12-08T05:59:19.274Z,-6.0
2022-12-08T06:01:49.884Z,-6.0
2022-12-08T06:04:30.931Z,-6.0
2022-12-08T06:07:01.575Z,-6.0
2022-12-08T06:09:26.457Z,-6.1
2022-12-08T06:11:57.057Z,-6.2
2022-12-08T06:14:27.644Z,-6.2
2022-12-08T06:16:58.330Z,-6.2
2022-12-08T06:19:39.128Z,-6.2
2022-12-08T06:22:09.758Z,-6.3
2022-12-08T06:24:40.371Z,-6.4
2022-12-08T06:27:10.967Z,-6.3
2022-12-08T06:32:25.884Z,-6.4
2022-12-08T06:34:57.875Z,-6.3
2022-12-08T06:37:28.502Z,-6.2
2022-12-08T06:39:59.139Z,-6.2
2022-12-08T06:42:29.759Z,-6.2
2022-12-08T06:45:00.384Z,-6.2
2022-12-08T06:50:11.359Z,-6.0
2022-12-08T06:52:49.541Z,-6.0
2022-12-08T06:55:35.232Z,-6.0
2022-12-08T06:57:39.993Z,-5.9
2022-12-08T07:00:14.374Z,-5.8
2022-12-08T07:02:55.024Z,-5.8
2022-12-08T07:05:25.704Z,-5.8
2022-12-08T07:07:56.377Z,-5.8
2022-12-08T07:12:57.370Z,-5.7
2022-12-08T07:15:37.982Z,-5.7
2022-12-08T07:18:08.578Z,-5.6
2022-12-08T07:20:39.200Z,-5.6
2022-12-08T07:23:09.800Z,-5.6
2022-12-08T07:25:40.400Z,-5.5
2022-12-08T07:28:10.997Z,-5.5
2022-12-08T07:30:51.623Z,-5.5
2022-12-08T07:33:22.462Z,-5.4
2022-12-08T07:35:53.063Z,-5.4
2022-12-08T07:38:23.644Z,-5.3
2022-12-08T07:40:54.280Z,-5.3
2022-12-08T07:43:24.864Z,-5.3
2022-12-08T07:46:05.553Z,-5.2
2022-12-08T07:48:36.427Z,-5.2
2022-12-08T07:53:37.184Z,-5.0
2022-12-08T07:56:13.829Z,-5.3
2022-12-08T07:58:44.441Z,-5.2
2022-12-08T08:01:25.532Z,-5.2
2022-12-08T08:03:56.389Z,-5.2
2022-12-08T08:06:27.162Z,-5.2
2022-12-08T08:08:57.753Z,-5.0
2022-12-08T08:11:28.401Z,-5.2
2022-12-08T08:14:02.402Z,-5.2
2022-12-08T08:16:38.032Z,-5.2
2022-12-08T08:19:09.437Z,-5.0
2022-12-08T08:21:46.234Z,-5.2
2022-12-08T08:24:07.037Z,-5.2
2022-12-08T08:26:37.648Z,-5.0
2022-12-08T08:29:18.237Z,-5.0
2022-12-08T08:34:19.029Z,-4.9
2022-12-08T08:36:49.726Z,-4.9
2022-12-08T08:39:20.485Z,-4.8
2022-12-08T08:41:51.091Z,-4.7
2022-12-08T08:44:31.695Z,-4.6
2022-12-08T08:47:02.353Z,-4.6
2022-12-08T08:49:33.013Z,-4.5
2022-12-08T08:52:03.608Z,-4.5
2022-12-08T08:54:34.228Z,-4.5
2022-12-08T08:57:04.845Z,-4.4
2022-12-08T08:59:46.365Z,-4.4
2022-12-08T09:02:17.622Z,-4.3
2022-12-08T09:04:48.414Z,-4.3
2022-12-08T09:07:19.460Z,-4.4
2022-12-08T09:09:50.134Z,-4.5
2022-12-08T09:15:02.947Z,-4.3
2022-12-08T09:17:33.560Z,-4.3
2022-12-08T09:20:04.376Z,-4.2
2022-12-08T09:22:35.273Z,-4.1
2022-12-08T09:25:05.873Z,-4.1
2022-12-08T09:27:46.498Z,-4.2
2022-12-08T09:30:17.099Z,-4.1
2022-12-08T09:32:47.713Z,-4.1
2022-12-08T09:35:18.340Z,-4.0
2022-12-08T09:37:48.943Z,-4.0
2022-12-08T09:40:19.574Z,-4.1
2022-12-08T09:43:00.196Z,-3.9
2022-12-08T09:45:30.857Z,-3.8
2022-12-08T09:48:01.461Z,-3.8
2022-12-08T09:50:32.058Z,-3.9
2022-12-08T09:55:42.813Z,-4.0
2022-12-08T09:58:13.439Z,-3.8
2022-12-08T10:00:44.056Z,-3.7
2022-12-08T10:03:16.786Z,-3.7
2022-12-08T10:05:47.695Z,-3.6
2022-12-08T10:08:18.385Z,-3.6
2022-12-08T10:10:59.216Z,-3.6
2022-12-08T10:13:29.806Z,-3.5
2022-12-08T10:16:00.460Z,-3.4
2022-12-08T10:18:30.471Z,-3.3
2022-12-08T10:21:01.097Z,-3.3
2022-12-08T10:23:31.700Z,-3.2
2022-12-08T10:26:12.308Z,-3.1
2022-12-08T10:28:44.995Z,-3.2
2022-12-08T10:31:16.212Z,-3.2
2022-12-08T10:36:17.190Z,-3.1
2022-12-08T10:38:47.795Z,-3.1
2022-12-08T10:41:28.425Z,-3.1
2022-12-08T10:43:59.042Z,-3.0
2022-12-08T10:46:29.732Z,-3.0
2022-12-08T10:49:00.547Z,-2.9
2022-12-08T10:51:31.153Z,-2.9
2022-12-08T10:54:11.798Z,-2.9
2022-12-08T10:56:42.746Z,-2.9
2022-12-08T10:59:13.372Z,-3.0
2022-12-08T11:01:44.168Z,-2.9
2022-12-08T11:04:15.487Z,-2.9
2022-12-08T11:06:46.289Z,-2.9
2022-12-08T11:09:26.972Z,-2.8
2022-12-08T11:11:57.607Z,-2.7
2022-12-08T11:16:58.409Z,-2.6
2022-12-08T11:19:29.201Z,-2.6
2022-12-08T11:21:59.823Z,-2.5
2022-12-08T11:24:40.436Z,-2.5
2022-12-08T11:27:11.065Z,-2.5
2022-12-08T11:29:41.678Z,-2.5
2022-12-08T11:32:12.771Z,-2.5
2022-12-08T11:34:43.507Z,-2.5
2022-12-08T11:37:14.182Z,-2.5
2022-12-08T11:39:55.826Z,-2.5
2022-12-08T11:42:26.846Z,-2.6
2022-12-08T11:44:57.488Z,-2.6
2022-12-08T11:47:28.452Z,-2.6
2022-12-08T11:49:55.721Z,-2.7
2022-12-08T11:52:39.989Z,-2.5
2022-12-08T11:57:40.768Z,-2.5
2022-12-08T12:00:11.579Z,-2.5
2022-12-08T12:02:42.248Z,-2.5
2022-12-08T12:05:13.135Z,-2.4
2022-12-08T12:07:54.118Z,-2.4
2022-12-08T12:10:25.007Z,-2.3
2022-12-08T12:12:55.626Z,-2.4
2022-12-08T12:15:26.277Z,-2.3
2022-12-08T12:17:56.899Z,-2.3
2022-12-08T12:20:32.416Z,-2.3
2022-12-08T12:23:13.023Z,-2.2
2022-12-08T12:25:43.732Z,-2.2
2022-12-08T12:28:14.340Z,-2.1
2022-12-08T12:30:44.974Z,-2.1
2022-12-08T12:33:15.770Z,-2.1
2022-12-08T12:38:26.552Z,-1.9
2022-12-08T12:40:57.205Z,-1.9
2022-12-08T12:43:22.696Z,-1.9
2022-12-08T12:45:53.335Z,-1.9
2022-12-08T12:48:24.127Z,-2.0
2022-12-08T12:50:54.715Z,-2.0
2022-12-08T12:53:35.304Z,-2.1
2022-12-08T12:56:05.936Z,-2.1
2022-12-08T12:58:36.531Z,-2.1
2022-12-08T13:01:07.141Z,-2.1
2022-12-08T13:03:37.867Z,-2.1
2022-12-08T13:06:18.480Z,-2.1
2022-12-08T13:08:49.086Z,-2.1
2022-12-08T13:11:29.704Z,-2.1
2022-12-08T13:13:56.693Z,-2.1
2022-12-08T13:18:57.467Z,-2.3
2022-12-08T13:21:38.098Z,-2.3
2022-12-08T13:24:08.695Z,-2.3
2022-12-08T13:26:39.346Z,-2.3
2022-12-08T13:29:09.950Z,-2.3
2022-12-08T13:31:43.863Z,-2.4
2022-12-08T13:34:17.225Z,-2.5
2022-12-08T13:36:47.859Z,-2.5
2022-12-08T13:39:18.446Z,-2.5
2022-12-08T13:41:49.060Z,-2.6
2022-12-08T13:45:03.919Z,-2.7
2022-12-08T13:47:33.691Z,-2.7
2022-12-08T13:53:56.303Z,-2.9
2022-12-08T13:57:01.491Z,-2.9
2022-12-08T13:59:34.591Z,-3.0
2022-12-08T14:02:05.241Z,-3.1
2022-12-08T14:05:16.042Z,-3.1
2022-12-08T14:07:24.123Z,-3.1
2022-12-08T14:09:54.825Z,-3.2
2022-12-08T14:12:25.452Z,-3.3
2022-12-08T14:15:04.321Z,-3.3
2022-12-08T14:17:25.353Z,-3.4
2022-12-08T14:20:06.003Z,-3.5
2022-12-08T14:22:36.644Z,-3.5
2022-12-08T14:25:07.733Z,-3.5
2022-12-08T14:27:38.404Z,-3.5
2022-12-08T14:30:09.033Z,-3.6
2022-12-08T14:32:39.614Z,-3.5
2022-12-08T14:35:20.244Z,-3.6
2022-12-08T14:40:22.834Z,-3.7
2022-12-08T14:42:53.915Z,-3.7
2022-12-08T14:45:24.565Z,-3.7
2022-12-08T14:47:55.620Z,-3.7
2022-12-08T14:50:36.263Z,-3.7
2022-12-08T14:53:06.879Z,-3.7
2022-12-08T14:55:37.598Z,-3.7
2022-12-08T14:58:10.699Z,-3.7
2022-12-08T15:00:42.298Z,-3.7
2022-12-08T15:03:12.917Z,-3.7
2022-12-08T15:05:53.530Z,-3.7
2022-12-08T15:08:24.212Z,-3.8
2022-12-08T15:10:54.879Z,-3.8
2022-12-08T15:13:25.640Z,-3.9
2022-12-08T15:15:56.378Z,-3.8
2022-12-08T15:21:07.357Z,-3.9
2022-12-08T15:23:37.981Z,-3.9
2022-12-08T15:26:08.578Z,-3.9
2022-12-08T15:28:39.159Z,-4.0
2022-12-08T15:31:09.839Z,-4.0
2022-12-08T15:33:50.588Z,-4.1
2022-12-08T15:36:21.222Z,-4.0
2022-12-08T15:38:51.831Z,-4.0
2022-12-08T15:41:22.419Z,-4.0
2022-12-08T15:43:53.032Z,-4.1
2022-12-08T15:46:23.771Z,-4.1
2022-12-08T15:49:04.553Z,-4.1
2022-12-08T15:51:35.175Z,-4.1
2022-12-08T15:54:09.541Z,-4.2
2022-12-08T15:56:45.399Z,-4.2
2022-12-08T16:01:35.298Z,-4.3
2022-12-08T16:07:20.049Z,-4.4
2022-12-08T16:09:21.740Z,-4.4
2022-12-08T16:12:05.650Z,-4.4
2022-12-08T16:15:23.276Z,-4.3
2022-12-08T16:16:49.563Z,-4.3
2022-12-08T16:19:30.175Z,-4.1
2022-12-08T16:24:32.035Z,-4.3
2022-12-08T16:29:32.507Z,-4.2
2022-12-08T16:32:13.234Z,-4.3
2022-12-08T16:34:43.900Z,-4.4
2022-12-08T16:37:14.789Z,-4.4
2022-12-08T16:42:15.514Z,-4.5
2022-12-08T16:44:46.202Z,-4.5
2022-12-08T16:47:27.332Z,-4.5
2022-12-08T16:49:58.045Z,-4.5
2022-12-08T16:52:28.765Z,-4.5
2022-12-08T16:54:59.405Z,-4.5
2022-12-08T16:57:30.044Z,-4.5
2022-12-08T17:00:00.654Z,-4.5
2022-12-08T17:02:41.295Z,-4.5
2022-12-08T17:05:12.002Z,-4.5
2022-12-08T17:07:42.884Z,-4.5
2022-12-08T17:10:13.680Z,-4.5
2022-12-08T17:12:44.333Z,-4.5
2022-12-08T17:15:15.007Z,-4.5
2022-12-08T17:18:05.610Z,-4.5
2022-12-08T17:23:06.385Z,-4.5
2022-12-08T17:25:36.976Z,-4.5
2022-12-08T17:28:07.551Z,-4.5
2022-12-08T17:30:31.182Z,-4.5
2022-12-08T17:33:11.828Z,-4.5
2022-12-08T17:35:47.181Z,-4.5
2022-12-08T17:38:17.793Z,-4.5
2022-12-08T17:40:48.417Z,-4.5
2022-12-08T17:43:19.253Z,-4.4
2022-12-08T17:45:59.996Z,-4.4
2022-12-08T17:48:30.862Z,-4.4
2022-12-08T17:51:01.481Z,-4.4
2022-12-08T17:53:37.161Z,-4.5
2022-12-08T17:55:57.970Z,-4.4
2022-12-08T17:58:28.588Z,-4.4
2022-12-08T18:03:45.083Z,-4.3
2022-12-08T18:06:15.688Z,-4.3
2022-12-08T18:08:41.367Z,-4.3
2022-12-08T18:11:11.996Z,-4.3
2022-12-08T18:13:42.614Z,-4.3
2022-12-08T18:16:33.303Z,-4.3
2022-12-08T18:19:04.103Z,-4.3
2022-12-08T18:21:34.897Z,-4.2
2022-12-08T18:23:55.599Z,-4.2
2022-12-08T18:26:36.223Z,-4.2
2022-12-08T18:29:06.823Z,-4.3
2022-12-08T18:31:47.423Z,-4.3
2022-12-08T18:34:18.056Z,-4.3
2022-12-08T18:36:48.659Z,-4.3
2022-12-08T18:39:19.282Z,-4.3
2022-12-08T18:44:30.018Z,-4.4
2022-12-08T18:47:00.658Z,-4.4
2022-12-08T18:49:31.281Z,-4.4
2022-12-08T18:52:01.940Z,-4.4
2022-12-08T18:54:49.955Z,-4.4
2022-12-08T18:57:05.224Z,-4.4
2022-12-08T18:59:45.828Z,-4.3
2022-12-08T19:02:16.851Z,-4.3
2022-12-08T19:04:47.719Z,-4.3
2022-12-08T19:07:18.339Z,-4.3
2022-12-08T19:09:49.071Z,-4.2
2022-12-08T19:12:20.060Z,-4.1
2022-12-08T19:15:00.668Z,-4.2
2022-12-08T19:17:31.271Z,-4.2
2022-12-08T19:20:01.880Z,-4.1
2022-12-08T19:25:02.660Z,-4.2
2022-12-08T19:27:33.270Z,-4.2
2022-12-08T19:30:13.891Z,-4.2
2022-12-08T19:32:44.549Z,-4.1
2022-12-08T19:35:15.176Z,-4.1
2022-12-08T19:37:45.805Z,-4.1
2022-12-08T19:40:16.419Z,-4.1
2022-12-08T19:42:57.034Z,-4.1
2022-12-08T19:45:27.781Z,-4.1
2022-12-08T19:47:58.672Z,-4.1
2022-12-08T19:50:29.281Z,-4.2
2022-12-08T19:52:59.898Z,-4.1
2022-12-08T19:55:30.477Z,-4.1
2022-12-08T19:58:11.125Z,-4.1
2022-12-08T20:00:41.770Z,-4.1
2022-12-08T20:05:42.582Z,-4.0
2022-12-08T20:08:13.264Z,-4.1
2022-12-08T20:10:44.074Z,-4.1
2022-12-08T20:13:24.765Z,-4.1
2022-12-08T20:15:55.554Z,-4.1
2022-12-08T20:18:26.480Z,-4.0
2022-12-08T20:20:57.305Z,-4.0
2022-12-08T20:23:27.950Z,-4.1
2022-12-08T20:25:58.613Z,-4.1
2022-12-08T20:28:39.203Z,-4.0
2022-12-08T20:31:09.882Z,-4.0
2022-12-08T20:33:40.771Z,-3.9
2022-12-08T20:36:11.441Z,-4.0
2022-12-08T20:38:42.093Z,-4.0
2022-12-08T20:41:22.731Z,-4.0
2022-12-08T20:46:19.455Z,-4.0
2022-12-08T20:48:54.212Z,-4.0
2022-12-08T20:51:30.114Z,-4.0
2022-12-08T20:53:52.567Z,-4.0
2022-12-08T20:56:33.524Z,-4.0
2022-12-08T20:59:09.183Z,-4.0
2022-12-08T21:01:40.043Z,-4.0
2022-12-08T21:04:11.522Z,-3.9
2022-12-08T21:06:42.787Z,-4.0
2022-12-08T21:09:13.911Z,-4.0
2022-12-08T21:11:55.218Z,-3.9
2022-12-08T21:14:26.180Z,-4.0
2022-12-08T21:16:57.165Z,-4.0
2022-12-08T21:19:28.621Z,-4.0
2022-12-08T21:21:59.460Z,-3.9
2022-12-08T21:27:10.754Z,-3.9
2022-12-08T21:29:41.680Z,-3.9
2022-12-08T21:32:12.638Z,-3.9
2022-12-08T21:34:37.973Z,-3.9
2022-12-08T21:37:09.138Z,-3.9
2022-12-08T21:39:40.355Z,-3.9
2022-12-08T21:42:22.795Z,-3.9
2022-12-08T21:44:55.450Z,-3.9
2022-12-08T21:47:26.651Z,-4.0
2022-12-08T21:49:58.112Z,-4.0
2022-12-08T21:52:19.294Z,-4.0
2022-12-08T21:55:00.046Z,-4.0
2022-12-08T21:57:31.016Z,-4.0
2022-12-08T22:00:02.100Z,-4.0
2022-12-08T22:02:33.620Z,-4.1
2022-12-08T22:07:35.594Z,-4.3
2022-12-08T22:10:16.462Z,-4.3
2022-12-08T22:12:47.281Z,-4.4
2022-12-08T22:15:18.298Z,-4.5
2022-12-08T22:17:49.017Z,-4.5
2022-12-08T22:20:20.095Z,-4.5
2022-12-08T22:22:54.596Z,-4.5
2022-12-08T22:25:35.754Z,-4.6
2022-12-08T22:28:06.898Z,-4.6
2022-12-08T22:30:39.270Z,-4.5
2022-12-08T22:33:10.623Z,-4.5
2022-12-08T22:35:41.702Z,-4.4
2022-12-08T22:38:10.117Z,-4.4
2022-12-08T22:40:51.238Z,-4.4
2022-12-08T22:43:22.125Z,-4.5
2022-12-08T22:48:23.747Z,-4.5
2022-12-08T22:50:54.899Z,-4.4
2022-12-08T22:53:35.813Z,-4.5
2022-12-08T22:56:06.887Z,-4.5
2022-12-08T22:58:37.783Z,-4.5
2022-12-08T23:01:08.468Z,-4.5
2022-12-08T23:03:39.467Z,-4.5
2022-12-08T23:06:10.939Z,-4.6
2022-12-08T23:08:52.211Z,-4.6
2022-12-08T23:11:13.250Z,-4.6
2022-12-08T23:13:44.137Z,-4.7
2022-12-08T23:16:15.195Z,-4.7
2022-12-08T23:18:46.342Z,-4.8
2022-12-08T23:21:17.213Z,-4.8
2022-12-08T23:23:58.105Z,-4.9
2022-12-08T23:28:58.990Z,-4.9
2022-12-08T23:31:29.816Z,-4.9
2022-12-08T23:34:00.920Z,-5.0
2022-12-08T23:36:31.674Z,-5.0
2022-12-08T23:39:12.388Z,-5.0
2022-12-08T23:41:43.196Z,-5.0
2022-12-08T23:44:13.964Z,-5.0
2022-12-08T23:46:44.979Z,-5.0
2022-12-08T23:49:16.070Z,-5.0
2022-12-08T23:51:47.043Z,-4.9
2022-12-08T23:54:27.880Z,-4.8
2022-12-08T23:56:58.930Z,-4.6
2022-12-08T23:59:30.018Z,-4.6
